Time;durP1;ratioP1;P1;durP2;ratioP2;P2;SDS_P1;SDS_P2;PMS_P1;PMS_P2;Temp;Humidity;BMP_temperature;BMP_pressure;BME280_temperature;BME280_humidity;BME280_pressure;Samples;Min_cycle;Max_cycle;Signal;HPM_P1;HPM_P2
2024/01/05 00:00:41;;;;;;;12.07;11.67;;;;;;;-1.12;100.00;100758.84;5026146;28;20460;-38
2024/01/05 00:03:09;;;;;;;12.20;11.60;;;;;;;-1.11;100.00;100763.94;5030780;28;20443;-37
2024/01/05 00:05:36;;;;;;;11.50;11.20;;;;;;;-1.15;100.00;100772.19;5031984;28;20436;-37
2024/01/05 00:08:05;;;;;;;11.27;10.83;;;;;;;-1.14;100.00;100768.63;5031246;28;20549;-37
2024/01/05 00:10:33;;;;;;;12.43;12.03;;;;;;;-1.19;100.00;100768.97;5031734;28;20559;-37
2024/01/05 00:13:02;;;;;;;11.70;11.30;;;;;;;-1.19;100.00;100770.75;5027265;28;20543;-36
2024/01/05 00:15:30;;;;;;;12.00;11.60;;;;;;;-1.20;100.00;100769.09;5028773;28;20847;-38
2024/01/05 00:17:58;;;;;;;12.63;11.87;;;;;;;-1.23;100.00;100766.72;5028615;28;20456;-37
2024/01/05 00:20:26;;;;;;;12.17;11.77;;;;;;;-1.17;100.00;100753.16;5029512;28;20459;-37
2024/01/05 00:22:54;;;;;;;12.63;11.90;;;;;;;-1.21;100.00;100762.19;5028904;28;20440;-37
2024/01/05 00:25:22;;;;;;;12.30;11.87;;;;;;;-1.13;100.00;100759.78;5031667;28;20468;-36
2024/01/05 00:27:52;;;;;;;12.70;12.20;;;;;;;-1.22;100.00;100755.28;5030967;28;21054;-37
2024/01/05 00:30:22;;;;;;;13.20;12.70;;;;;;;-1.20;100.00;100748.16;5031012;28;20494;-37
2024/01/05 00:32:50;;;;;;;13.50;13.10;;;;;;;-1.15;100.00;100735.53;5031451;28;20527;-37
2024/01/05 00:35:18;;;;;;;13.30;12.80;;;;;;;-1.19;100.00;100736.72;5031223;28;20444;-38
2024/01/05 00:37:45;;;;;;;13.73;13.03;;;;;;;-1.19;100.00;100747.19;5030926;28;20472;-38
2024/01/05 00:40:13;;;;;;;12.37;11.97;;;;;;;-1.19;100.00;100741.97;5030361;28;20539;-40
2024/01/05 00:42:41;;;;;;;13.70;13.00;;;;;;;-1.20;100.00;100743.78;5031276;28;20440;-37
2024/01/05 00:45:09;;;;;;;13.00;12.50;;;;;;;-1.17;100.00;100740.09;5031428;28;20781;-37
2024/01/05 00:47:38;;;;;;;13.17;12.47;;;;;;;-1.13;100.00;100741.47;5030725;28;20535;-39
2024/01/05 00:50:07;;;;;;;12.93;12.30;;;;;;;-1.12;100.00;100730.91;5030949;28;20476;-37
2024/01/05 00:52:35;;;;;;;13.60;13.00;;;;;;;-1.19;100.00;100734.13;5031060;28;20440;-36
2024/01/05 00:55:03;;;;;;;13.57;13.07;;;;;;;-1.21;100.00;100729.03;5035285;28;20442;-37
2024/01/05 00:57:31;;;;;;;14.23;13.73;;;;;;;-1.16;100.00;100741.72;5027874;28;20460;-38
2024/01/05 00:59:59;;;;;;;13.67;13.27;;;;;;;-1.19;100.00;100740.19;5030741;28;20459;-36
2024/01/05 01:02:27;;;;;;;14.40;13.80;;;;;;;-1.17;100.00;100740.91;5031195;28;20432;-38
2024/01/05 01:04:56;;;;;;;14.53;14.00;;;;;;;-1.19;100.00;100740.19;5030966;28;20527;-38
2024/01/05 01:07:24;;;;;;;15.27;14.77;;;;;;;-1.21;100.00;100733.41;5042155;28;20504;-36
2024/01/05 01:09:52;;;;;;;14.80;14.20;;;;;;;-1.23;100.00;100737.94;5046716;28;20483;-37
2024/01/05 01:12:19;;;;;;;14.07;13.47;;;;;;;-1.24;100.00;100736.28;5049526;28;20514;-37
2024/01/05 01:14:47;;;;;;;14.23;13.83;;;;;;;-1.28;100.00;100730.44;5046518;28;20799;-36
2024/01/05 01:17:15;;;;;;;15.07;14.57;;;;;;;-1.27;100.00;100726.06;5054177;28;20997;-36
2024/01/05 01:19:43;;;;;;;14.73;14.23;;;;;;;-1.24;100.00;100731.03;5054635;28;21035;-36
2024/01/05 01:22:12;;;;;;;14.83;14.20;;;;;;;-1.32;100.00;100723.81;5054978;28;20447;-37
2024/01/05 01:24:40;;;;;;;13.83;13.23;;;;;;;-1.32;100.00;100722.97;5055094;28;20466;-38
2024/01/05 01:27:08;;;;;;;14.93;14.23;;;;;;;-1.34;100.00;100722.25;5045910;28;20963;-38
2024/01/05 01:29:35;;;;;;;13.93;13.33;;;;;;;-1.28;100.00;100719.97;5046186;28;20536;-37
2024/01/05 01:32:03;;;;;;;14.00;13.50;;;;;;;-1.27;100.00;100720.81;5042616;28;20978;-37
2024/01/05 01:34:31;;;;;;;14.37;13.73;;;;;;;-1.31;100.00;100717.59;5047697;28;20475;-37
2024/01/05 01:36:59;;;;;;;14.63;13.83;;;;;;;-1.29;100.00;100722.75;5031885;28;20446;-42
2024/01/05 01:39:29;;;;;;;14.50;14.00;;;;;;;-1.36;100.00;100713.69;5038013;28;20974;-37
2024/01/05 01:41:56;;;;;;;15.30;14.70;;;;;;;-1.30;100.00;100703.59;5038857;28;20436;-39
2024/01/05 01:44:24;;;;;;;14.83;14.33;;;;;;;-1.31;100.00;100725.47;5053970;28;20795;-38
2024/01/05 01:46:54;;;;;;;14.40;13.90;;;;;;;-1.31;100.00;100711.53;5042453;28;20811;-43
2024/01/05 01:49:23;;;;;;;13.90;13.40;;;;;;;-1.33;100.00;100706.44;5048305;28;20475;-37
2024/01/05 01:51:51;;;;;;;13.67;13.23;;;;;;;-1.35;100.00;100708.38;5040304;28;20472;-39
2024/01/05 01:54:19;;;;;;;13.07;12.70;;;;;;;-1.36;100.00;100709.31;5047311;28;20493;-39
2024/01/05 01:56:50;;;;;;;13.07;12.67;;;;;;;-1.36;100.00;100701.47;5034226;28;20436;-39
2024/01/05 01:59:17;;;;;;;13.73;12.83;;;;;;;-1.30;100.00;100711.44;5033447;28;20487;-39
2024/01/05 02:01:46;;;;;;;13.53;12.93;;;;;;;-1.27;100.00;100705.13;5040026;28;20439;-39
2024/01/05 02:04:16;;;;;;;14.07;13.53;;;;;;;-1.28;100.00;100696.44;5053641;28;20802;-37
2024/01/05 02:06:44;;;;;;;12.60;12.20;;;;;;;-1.29;100.00;100705.25;5045884;28;20936;-37
2024/01/05 02:09:13;;;;;;;13.37;12.87;;;;;;;-1.29;100.00;100697.41;5041129;28;20914;-37
2024/01/05 02:11:41;;;;;;;13.83;13.23;;;;;;;-1.25;100.00;100690.97;5050371;28;21114;-36
2024/01/05 02:14:11;;;;;;;13.70;13.10;;;;;;;-1.27;100.00;100692.03;5037086;28;20467;-40
2024/01/05 02:16:41;;;;;;;13.83;13.43;;;;;;;-1.24;100.00;100691.81;5049436;28;20447;-39
2024/01/05 02:19:09;;;;;;;13.90;13.40;;;;;;;-1.25;100.00;100687.50;5044550;28;20463;-38
2024/01/05 02:21:43;;;;;;;15.30;14.60;;;;;;;-1.24;100.00;100683.94;5040723;28;20455;-37
2024/01/05 02:24:12;;;;;;;15.40;14.80;;;;;;;-1.25;100.00;100685.72;5038888;28;20471;-37
2024/01/05 02:26:40;;;;;;;14.00;13.50;;;;;;;-1.26;100.00;100676.25;5037071;28;21104;-39
2024/01/05 02:29:09;;;;;;;13.80;13.40;;;;;;;-1.21;100.00;100691.56;5032646;28;20463;-42
2024/01/05 02:31:37;;;;;;;14.77;14.20;;;;;;;-1.26;100.00;100684.09;5033620;28;20872;-40
2024/01/05 02:34:04;;;;;;;14.90;14.30;;;;;;;-1.24;100.00;100683.94;5033655;28;20442;-39
2024/01/05 02:36:32;;;;;;;14.77;14.17;;;;;;;-1.28;100.00;100675.50;5033676;28;20490;-39
2024/01/05 02:39:00;;;;;;;15.30;14.53;;;;;;;-1.26;100.00;100676.25;5029249;28;20851;-41
2024/01/05 02:41:29;;;;;;;15.23;14.53;;;;;;;-1.19;100.00;100679.16;5036519;28;20440;-40
2024/01/05 02:43:57;;;;;;;14.77;14.17;;;;;;;-1.19;100.00;100682.63;5045290;28;20542;-39
2024/01/05 02:46:25;;;;;;;14.13;13.73;;;;;;;-1.23;100.00;100675.16;5038377;28;20924;-37
2024/01/05 02:48:53;;;;;;;14.80;14.10;;;;;;;-1.26;100.00;100685.88;5032694;28;20902;-38
2024/01/05 02:51:21;;;;;;;15.43;14.83;;;;;;;-1.27;100.00;100664.09;5031650;28;20499;-38
2024/01/05 02:53:48;;;;;;;14.90;14.20;;;;;;;-1.26;100.00;100664.94;5050135;28;21221;-38
2024/01/05 02:56:20;;;;;;;13.17;12.77;;;;;;;-1.21;100.00;100674.06;5031776;28;20446;-39
2024/01/05 02:58:50;;;;;;;14.07;13.43;;;;;;;-1.20;100.00;100659.22;5032277;28;20467;-41
2024/01/05 03:01:18;;;;;;;15.90;15.40;;;;;;;-1.20;100.00;100657.44;5042803;28;20447;-38
2024/01/05 03:03:48;;;;;;;15.37;14.67;;;;;;;-1.18;100.00;100646.81;5052641;28;20440;-37
2024/01/05 03:06:19;;;;;;;15.00;14.30;;;;;;;-1.20;100.00;100625.19;5044489;28;20470;-44
2024/01/05 03:08:47;;;;;;;15.70;15.10;;;;;;;-1.24;100.00;100639.47;5048571;28;20455;-37
2024/01/05 03:11:15;;;;;;;15.47;14.80;;;;;;;-1.22;100.00;100627.94;5041741;28;20509;-37
2024/01/05 03:13:43;;;;;;;15.17;14.67;;;;;;;-1.18;100.00;100637.19;5046156;28;20440;-37
2024/01/05 03:16:12;;;;;;;15.60;15.00;;;;;;;-1.13;100.00;100636.81;5045417;28;20446;-35
2024/01/05 03:18:41;;;;;;;15.17;14.17;;;;;;;-1.16;100.00;100644.91;5050772;28;20460;-36
2024/01/05 03:21:10;;;;;;;15.20;14.50;;;;;;;-1.17;100.00;100640.66;5033817;28;20460;-39
2024/01/05 03:23:38;;;;;;;15.83;15.17;;;;;;;-1.17;100.00;100632.81;5048565;28;20447;-41
2024/01/05 03:26:08;;;;;;;16.03;15.43;;;;;;;-1.09;100.00;100629.56;5029108;28;20440;-37
2024/01/05 03:28:38;;;;;;;15.97;15.20;;;;;;;-1.09;100.00;100633.00;5030187;28;20459;-36
2024/01/05 03:31:06;;;;;;;16.30;15.70;;;;;;;-1.06;100.00;100627.50;5029718;28;20476;-36
2024/01/05 03:33:35;;;;;;;16.70;16.10;;;;;;;-1.05;100.00;100636.22;5030022;28;20808;-37
2024/01/05 03:36:03;;;;;;;15.07;14.40;;;;;;;-1.00;100.00;100634.88;5031259;28;20443;-37
2024/01/05 03:38:31;;;;;;;14.33;13.73;;;;;;;-1.00;100.00;100640.09;5027154;28;20460;-36
2024/01/05 03:40:59;;;;;;;14.23;13.27;;;;;;;-1.00;100.00;100613.09;5030376;28;20500;-39
2024/01/05 03:43:27;;;;;;;14.63;14.03;;;;;;;-0.95;100.00;100624.84;5029655;28;20440;-36
2024/01/05 03:45:54;;;;;;;15.00;14.50;;;;;;;-1.00;100.00;100611.31;5029700;28;20849;-37
2024/01/05 03:48:23;;;;;;;15.40;14.70;;;;;;;-0.93;100.00;100611.66;5030730;28;20456;-36
2024/01/05 03:50:52;;;;;;;15.90;15.30;;;;;;;-0.91;100.00;100607.94;5029740;28;20476;-37
2024/01/05 03:53:21;;;;;;;16.30;15.60;;;;;;;-0.90;100.00;100604.38;5032021;28;20486;-37
2024/01/05 03:55:48;;;;;;;16.83;16.17;;;;;;;-0.94;100.00;100599.50;5035039;28;20860;-40
2024/01/05 03:58:16;;;;;;;16.83;16.13;;;;;;;-1.01;100.00;100604.41;5030547;28;20546;-38
2024/01/05 04:00:44;;;;;;;16.87;16.00;;;;;;;-1.00;100.00;100600.84;5028976;28;20448;-39
2024/01/05 04:03:12;;;;;;;17.23;16.53;;;;;;;-1.00;100.00;100598.22;5031074;28;20785;-38
2024/01/05 04:05:40;;;;;;;16.57;15.87;;;;;;;-0.97;100.00;100592.75;5031789;28;20436;-36
2024/01/05 04:08:10;;;;;;;18.87;17.10;;;;;;;-0.97;100.00;100586.66;5028443;28;20479;-37
2024/01/05 04:10:39;;;;;;;16.90;16.20;;;;;;;-1.02;100.00;100584.44;5028313;28;20562;-37
2024/01/05 04:13:06;;;;;;;17.17;16.07;;;;;;;-0.97;100.00;100581.44;5030162;28;20536;-36
2024/01/05 04:15:36;;;;;;;17.37;16.47;;;;;;;-0.98;100.00;100585.00;5031800;28;20432;-36
2024/01/05 04:18:04;;;;;;;18.00;17.00;;;;;;;-1.01;100.00;100575.63;5027976;28;20484;-39
2024/01/05 04:20:32;;;;;;;18.13;17.37;;;;;;;-1.00;100.00;100593.00;5029964;28;20527;-38
2024/01/05 04:23:01;;;;;;;18.33;17.40;;;;;;;-1.00;100.00;100577.28;5029566;28;20439;-36
2024/01/05 04:25:31;;;;;;;18.70;17.80;;;;;;;-0.99;100.00;100586.81;5028868;28;20479;-36
2024/01/05 04:27:59;;;;;;;17.63;16.83;;;;;;;-0.95;100.00;100577.72;5028069;28;21066;-37
2024/01/05 04:30:27;;;;;;;18.77;17.73;;;;;;;-0.94;100.00;100568.09;5028928;28;20476;-37
2024/01/05 04:32:54;;;;;;;17.93;16.93;;;;;;;-0.96;100.00;100570.03;5031425;28;20452;-38
2024/01/05 04:35:22;;;;;;;20.07;18.87;;;;;;;-0.93;100.00;100557.50;5026412;28;20730;-39
2024/01/05 04:37:50;;;;;;;21.00;19.10;;;;;;;-0.94;100.00;100555.84;5029476;28;20551;-44
2024/01/05 04:40:18;;;;;;;17.67;16.77;;;;;;;-0.95;100.00;100558.56;5028363;28;20496;-39
2024/01/05 04:42:47;;;;;;;18.27;17.27;;;;;;;-0.88;100.00;100564.97;5030023;28;20474;-36
2024/01/05 04:45:16;;;;;;;16.70;16.00;;;;;;;-0.86;100.00;100563.88;5027334;28;20455;-36
2024/01/05 04:47:46;;;;;;;17.13;16.33;;;;;;;-0.87;100.00;100564.84;5029897;28;20456;-39
2024/01/05 04:50:14;;;;;;;16.47;15.77;;;;;;;-0.84;100.00;100541.03;5028132;28;20525;-38
2024/01/05 04:52:42;;;;;;;16.60;15.67;;;;;;;-0.85;100.00;100544.59;5037244;28;20436;-37
2024/01/05 04:55:14;;;;;;;17.50;16.70;;;;;;;-0.85;100.00;100549.00;5036007;28;20443;-36
2024/01/05 04:57:42;;;;;;;16.13;15.43;;;;;;;-0.79;100.00;100544.09;5028702;28;20471;-36
2024/01/05 05:00:15;;;;;;;18.20;16.80;;;;;;;-0.78;100.00;100539.69;5030268;28;20546;-37
2024/01/05 05:02:43;;;;;;;17.80;17.00;;;;;;;-0.74;100.00;100531.44;5031145;28;20460;-38
2024/01/05 05:05:11;;;;;;;17.80;16.90;;;;;;;-0.71;100.00;100541.66;5029147;28;20479;-38
2024/01/05 05:07:39;;;;;;;18.13;17.33;;;;;;;-0.71;100.00;100539.03;5028729;28;20491;-37
2024/01/05 05:10:08;;;;;;;16.73;15.93;;;;;;;-0.69;100.00;100537.09;5029239;28;20456;-37
2024/01/05 05:12:35;;;;;;;16.43;15.63;;;;;;;-0.68;100.00;100520.44;5030837;28;21945;-37
2024/01/05 05:15:04;;;;;;;17.17;16.40;;;;;;;-0.67;100.00;100521.28;5027941;28;20831;-41
2024/01/05 05:17:33;;;;;;;17.00;16.30;;;;;;;-0.65;100.00;100527.19;5028648;28;20459;-37
2024/01/05 05:20:01;;;;;;;16.57;15.47;;;;;;;-0.66;100.00;100533.41;5030277;28;20491;-39
2024/01/05 05:22:29;;;;;;;16.80;15.87;;;;;;;-0.63;100.00;100541.81;5027914;28;20435;-37
2024/01/05 05:24:57;;;;;;;16.43;15.63;;;;;;;-0.59;100.00;100540.63;5028702;28;20498;-40
2024/01/05 05:27:25;;;;;;;16.10;15.10;;;;;;;-0.55;100.00;100535.94;5030040;28;20456;-37
2024/01/05 05:29:53;;;;;;;15.90;15.20;;;;;;;-0.53;100.00;100535.81;5045696;28;20486;-37
2024/01/05 05:32:20;;;;;;;16.10;15.30;;;;;;;-0.50;100.00;100539.00;5047926;28;20466;-37
2024/01/05 05:34:50;;;;;;;16.27;15.47;;;;;;;-0.42;100.00;100530.50;5037365;28;20437;-38
2024/01/05 05:37:18;;;;;;;15.20;14.60;;;;;;;-0.43;100.00;100518.34;5044325;28;20509;-36
2024/01/05 05:39:46;;;;;;;15.77;15.17;;;;;;;-0.43;100.00;100531.44;5040101;28;20494;-37
2024/01/05 05:42:14;;;;;;;14.93;14.13;;;;;;;-0.39;100.00;100519.75;5049349;28;20493;-38
2024/01/05 05:44:41;;;;;;;15.40;14.70;;;;;;;-0.37;100.00;100529.16;5043216;28;20458;-37
2024/01/05 05:47:10;;;;;;;15.43;14.73;;;;;;;-0.32;100.00;100534.81;5046911;28;20509;-36
2024/01/05 05:49:38;;;;;;;14.40;13.73;;;;;;;-0.30;100.00;100530.25;5035181;28;20462;-37
2024/01/05 05:52:08;;;;;;;15.73;14.50;;;;;;;-0.27;100.00;100526.56;5027933;28;20467;-38
2024/01/05 05:54:35;;;;;;;15.07;14.37;;;;;;;-0.27;100.00;100524.75;5034453;28;20497;-36
2024/01/05 05:57:07;;;;;;;15.37;14.50;;;;;;;-0.25;100.00;100540.34;5005486;28;20475;-37
2024/01/05 05:59:35;;;;;;;15.10;14.30;;;;;;;-0.21;100.00;100539.13;5028466;28;20460;-38
2024/01/05 06:02:03;;;;;;;15.70;15.10;;;;;;;-0.21;100.00;100537.31;5032087;28;20436;-36
2024/01/05 06:04:31;;;;;;;16.40;15.60;;;;;;;-0.16;100.00;100532.53;5031634;28;20440;-39
2024/01/05 06:06:59;;;;;;;32.70;27.80;;;;;;;-0.15;100.00;100523.69;5030759;28;20445;-36
2024/01/05 06:09:29;;;;;;;19.60;18.70;;;;;;;-0.11;100.00;100529.50;5031291;28;20546;-38
2024/01/05 06:11:56;;;;;;;15.50;14.80;;;;;;;-0.09;100.00;100530.22;5032292;28;20472;-39
2024/01/05 06:14:24;;;;;;;18.10;17.20;;;;;;;-0.11;100.00;100519.84;5031091;28;20439;-39
2024/01/05 06:16:52;;;;;;;17.57;16.77;;;;;;;-0.13;100.00;100520.94;5032426;28;20472;-37
2024/01/05 06:19:20;;;;;;;17.47;16.67;;;;;;;-0.12;100.00;100512.94;5028173;28;20474;-38
2024/01/05 06:21:48;;;;;;;17.80;16.90;;;;;;;-0.15;100.00;100507.97;5031891;28;20433;-36
2024/01/05 06:24:16;;;;;;;18.67;17.67;;;;;;;-0.10;100.00;100521.50;5030030;28;20448;-37
2024/01/05 06:26:45;;;;;;;19.00;18.13;;;;;;;-0.09;100.00;100517.91;5030120;28;20435;-37
2024/01/05 06:29:13;;;;;;;18.20;17.40;;;;;;;-0.02;100.00;100512.97;5042593;28;21183;-37
2024/01/05 06:31:40;;;;;;;19.30;17.90;;;;;;;0.01;100.00;100512.69;5041817;28;20472;-36
2024/01/05 06:34:09;;;;;;;19.23;17.67;;;;;;;-0.02;100.00;100523.44;5044442;28;20448;-39
2024/01/05 06:36:37;;;;;;;16.07;15.37;;;;;;;-0.06;100.00;100512.41;5040516;28;20522;-36
2024/01/05 06:39:05;;;;;;;16.80;16.00;;;;;;;-0.05;100.00;100519.31;5048306;28;20459;-39
2024/01/05 06:41:33;;;;;;;16.93;16.10;;;;;;;-0.05;100.00;100513.22;5050061;28;20450;-39
2024/01/05 06:44:02;;;;;;;18.80;17.90;;;;;;;-0.06;100.00;100524.69;5050032;28;20457;-37
2024/01/05 06:46:30;;;;;;;18.00;17.20;;;;;;;-0.05;100.00;100518.47;5048715;28;20439;-37
2024/01/05 06:48:58;;;;;;;18.30;17.40;;;;;;;-0.04;100.00;100515.75;5043411;28;20464;-36
2024/01/05 06:51:29;;;;;;;18.63;17.63;;;;;;;-0.06;100.00;100515.03;5051413;28;20439;-36
2024/01/05 06:53:58;;;;;;;16.90;16.20;;;;;;;-0.04;100.00;100518.34;5052136;28;20441;-37
2024/01/05 06:56:31;;;;;;;17.33;16.53;;;;;;;-0.04;100.00;100499.19;5034422;28;20440;-37
2024/01/05 06:59:00;;;;;;;16.50;15.70;;;;;;;-0.03;100.00;100517.38;5032000;28;20475;-37
2024/01/05 07:01:28;;;;;;;17.13;16.33;;;;;;;-0.01;100.00;100504.16;5032686;28;20451;-36
2024/01/05 07:03:56;;;;;;;16.63;15.90;;;;;;;-0.02;100.00;100499.88;5032871;28;20468;-37
2024/01/05 07:06:24;;;;;;;16.30;15.60;;;;;;;0.00;100.00;100504.00;5032894;28;20463;-36
2024/01/05 07:08:52;;;;;;;16.63;15.90;;;;;;;0.03;100.00;100502.09;5044766;28;20452;-36
2024/01/05 07:11:21;;;;;;;16.43;15.57;;;;;;;0.03;100.00;100504.72;5046260;28;21032;-36
2024/01/05 07:13:50;;;;;;;15.83;15.13;;;;;;;0.05;100.00;100514.09;5050413;28;20471;-36
2024/01/05 07:16:18;;;;;;;16.10;15.50;;;;;;;0.07;100.00;100511.31;5050067;28;20498;-36
2024/01/05 07:18:47;;;;;;;16.20;15.40;;;;;;;0.08;100.00;100510.38;5040870;28;20458;-37
2024/01/05 07:21:16;;;;;;;15.73;15.13;;;;;;;0.09;100.00;100504.97;5043912;28;20446;-37
2024/01/05 07:23:45;;;;;;;15.57;14.97;;;;;;;0.13;100.00;100519.50;5030272;28;20475;-37
2024/01/05 07:26:13;;;;;;;16.37;15.57;;;;;;;0.09;100.00;100523.34;5038446;28;20448;-37
2024/01/05 07:28:41;;;;;;;15.00;14.40;;;;;;;0.08;100.00;100516.44;5038756;28;20496;-37
2024/01/05 07:31:09;;;;;;;15.27;14.60;;;;;;;0.09;100.00;100522.53;5040758;28;20959;-36
2024/01/05 07:33:40;;;;;;;15.67;14.87;;;;;;;0.10;100.00;100511.91;5032362;28;20874;-37
2024/01/05 07:36:09;;;;;;;16.87;16.17;;;;;;;0.09;100.00;100522.53;5032833;28;20440;-37
2024/01/05 07:38:37;;;;;;;16.70;16.00;;;;;;;0.06;100.00;100531.47;5041549;28;20471;-37
2024/01/05 07:41:05;;;;;;;16.13;15.43;;;;;;;0.07;100.00;100529.69;5048950;28;20459;-37
2024/01/05 07:43:33;;;;;;;14.90;14.30;;;;;;;0.10;100.00;100517.13;5050274;28;20431;-36
2024/01/05 07:46:03;;;;;;;16.10;15.30;;;;;;;0.07;100.00;100522.66;5049669;28;20427;-38
2024/01/05 07:48:31;;;;;;;17.10;16.40;;;;;;;0.10;100.00;100517.13;5041499;28;20455;-38
2024/01/05 07:51:03;;;;;;;16.27;15.43;;;;;;;0.09;100.00;100519.91;5045424;28;20452;-36
2024/01/05 07:53:32;;;;;;;16.70;15.63;;;;;;;0.10;100.00;100524.16;5048224;28;20542;-39
2024/01/05 07:56:01;;;;;;;16.27;15.57;;;;;;;0.11;100.00;100534.53;5038880;28;20532;-37
2024/01/05 07:58:28;;;;;;;16.23;15.53;;;;;;;0.07;100.00;100527.88;5039798;28;20495;-37
2024/01/05 08:00:56;;;;;;;16.40;15.60;;;;;;;0.13;100.00;100529.13;5032084;28;20460;-37
2024/01/05 08:03:24;;;;;;;16.60;15.70;;;;;;;0.11;100.00;100521.44;5039893;28;20514;-36
2024/01/05 08:05:52;;;;;;;16.40;15.33;;;;;;;0.08;100.00;100529.56;5048197;28;20824;-36
2024/01/05 08:08:20;;;;;;;16.23;15.53;;;;;;;0.12;100.00;100515.19;5046999;28;20455;-37
2024/01/05 08:10:49;;;;;;;17.03;16.13;;;;;;;0.07;100.00;100511.31;5049282;28;20513;-36
2024/01/05 08:13:19;;;;;;;17.33;16.43;;;;;;;0.06;100.00;100520.97;5041958;28;20558;-36
2024/01/05 08:15:46;;;;;;;17.50;16.73;;;;;;;0.02;100.00;100518.78;5030372;28;20476;-37
2024/01/05 08:18:15;;;;;;;18.27;17.57;;;;;;;0.00;100.00;100517.09;5029761;28;20456;-36
2024/01/05 08:20:43;;;;;;;16.97;16.07;;;;;;;0.09;100.00;100510.22;5031257;28;20459;-37
2024/01/05 08:23:12;;;;;;;16.00;15.40;;;;;;;0.08;100.00;100531.34;5031047;28;20477;-37
2024/01/05 08:25:39;;;;;;;16.63;15.70;;;;;;;0.03;100.00;100510.75;5033588;28;20531;-37
2024/01/05 08:28:09;;;;;;;16.73;15.83;;;;;;;-0.04;100.00;100518.34;5037574;28;20511;-36
2024/01/05 08:30:37;;;;;;;16.00;15.30;;;;;;;-0.01;100.00;100509.41;5041096;28;20550;-37
2024/01/05 08:33:06;;;;;;;16.67;15.73;;;;;;;0.00;100.00;100519.72;5037931;28;20479;-36
2024/01/05 08:35:34;;;;;;;16.30;15.60;;;;;;;0.02;100.00;100514.38;5039676;28;20527;-37
2024/01/05 08:38:05;;;;;;;16.60;15.80;;;;;;;0.06;100.00;100507.88;5031150;28;20547;-36
2024/01/05 08:40:33;;;;;;;16.60;15.70;;;;;;;0.00;100.00;100506.63;5040029;28;20462;-36
2024/01/05 08:43:02;;;;;;;16.10;15.40;;;;;;;0.08;100.00;100508.59;5051428;28;20470;-37
2024/01/05 08:45:32;;;;;;;15.77;15.07;;;;;;;0.06;100.00;100514.94;5051326;28;20463;-38
2024/01/05 08:48:01;;;;;;;15.80;15.20;;;;;;;0.07;100.00;100512.16;5049193;28;20451;-36
2024/01/05 08:50:29;;;;;;;18.00;17.30;;;;;;;0.02;100.00;100519.63;5039952;28;20454;-36
2024/01/05 08:52:56;;;;;;;17.37;16.40;;;;;;;-0.01;100.00;100528.56;5041656;28;20498;-37
2024/01/05 08:55:24;;;;;;;16.60;15.90;;;;;;;-0.01;100.00;100519.88;5050999;28;20922;-36
2024/01/05 08:57:52;;;;;;;18.07;17.27;;;;;;;-0.09;100.00;100520.53;5050217;28;20447;-36
2024/01/05 09:00:21;;;;;;;18.60;17.60;;;;;;;-0.15;100.00;100542.03;5048835;28;20478;-39
2024/01/05 09:02:50;;;;;;;16.60;15.80;;;;;;;-0.10;100.00;100536.41;5040388;28;20435;-36
2024/01/05 09:05:19;;;;;;;16.50;15.80;;;;;;;-0.07;100.00;100541.38;5048347;28;20446;-37
2024/01/05 09:07:47;;;;;;;17.13;16.23;;;;;;;-0.14;100.00;100553.34;5048349;28;20483;-40
2024/01/05 09:10:15;;;;;;;17.30;16.57;;;;;;;-0.17;100.00;100540.50;5048906;28;20456;-38
2024/01/05 09:12:43;;;;;;;18.00;17.20;;;;;;;-0.25;100.00;100540.34;5048104;28;20493;-36
2024/01/05 09:15:11;;;;;;;18.07;17.37;;;;;;;-0.25;100.00;100540.34;5048794;28;20438;-38
2024/01/05 09:17:39;;;;;;;17.83;16.83;;;;;;;-0.24;100.00;100534.16;5047801;28;20815;-38
2024/01/05 09:20:09;;;;;;;17.80;17.00;;;;;;;-0.25;100.00;100541.19;5039832;28;20452;-36
2024/01/05 09:22:37;;;;;;;18.37;17.37;;;;;;;-0.16;100.00;100543.00;5048426;28;20435;-36
2024/01/05 09:25:07;;;;;;;17.87;17.07;;;;;;;-0.07;100.00;100538.75;5048357;28;20466;-36
2024/01/05 09:27:35;;;;;;;18.27;17.27;;;;;;;-0.06;100.00;100537.81;5047966;28;20435;-38
2024/01/05 09:30:04;;;;;;;17.73;17.00;;;;;;;0.02;100.00;100540.59;5048191;28;20459;-39
2024/01/05 09:32:32;;;;;;;18.90;17.80;;;;;;;-0.03;100.00;100540.16;5048311;28;20438;-39
2024/01/05 09:35:00;;;;;;;18.50;17.50;;;;;;;-0.12;100.00;100528.66;5049652;28;20499;-38
2024/01/05 09:37:29;;;;;;;18.43;17.53;;;;;;;-0.19;100.00;100545.06;5052133;28;20527;-39
2024/01/05 09:39:57;;;;;;;18.63;17.43;;;;;;;-0.26;100.00;100544.75;5051614;28;20805;-37
2024/01/05 09:42:26;;;;;;;17.70;16.80;;;;;;;-0.26;100.00;100521.19;5051918;28;20534;-40
2024/01/05 09:44:54;;;;;;;17.77;16.87;;;;;;;-0.28;100.00;100535.38;5052290;28;20828;-36
2024/01/05 09:47:23;;;;;;;17.47;16.47;;;;;;;-0.27;100.00;100527.38;5051603;28;20779;-38
2024/01/05 09:49:52;;;;;;;17.10;16.30;;;;;;;-0.32;100.00;100544.44;5051712;28;20516;-37
2024/01/05 09:52:21;;;;;;;17.80;16.53;;;;;;;-0.21;100.00;100544.38;5053829;28;20886;-38
2024/01/05 09:54:51;;;;;;;17.07;16.27;;;;;;;-0.23;100.00;100531.41;5051750;28;20471;-37
2024/01/05 09:57:20;;;;;;;17.30;16.40;;;;;;;-0.27;100.00;100530.00;5052473;28;20441;-37
2024/01/05 09:59:48;;;;;;;16.90;16.00;;;;;;;-0.26;100.00;100520.34;5044498;28;20483;-37
2024/01/05 10:02:20;;;;;;;17.23;16.43;;;;;;;-0.39;100.00;100528.44;5053028;28;20855;-37
2024/01/05 10:04:48;;;;;;;16.73;15.93;;;;;;;-0.36;100.00;100522.91;5051361;28;20438;-36
2024/01/05 10:07:16;;;;;;;17.23;16.17;;;;;;;-0.41;100.00;100514.63;5051705;28;20910;-36
2024/01/05 10:09:52;;;;;;;17.10;16.40;;;;;;;-0.29;100.00;100518.81;5051981;28;20455;-39
2024/01/05 10:12:20;;;;;;;16.70;16.00;;;;;;;-0.24;100.00;100502.72;5043498;28;20928;-38
2024/01/05 10:14:48;;;;;;;17.90;17.00;;;;;;;-0.09;100.00;100514.50;5043058;28;20479;-36
2024/01/05 10:17:16;;;;;;;18.57;17.47;;;;;;;-0.05;100.00;100498.34;5045962;28;20440;-36
2024/01/05 10:19:44;;;;;;;16.27;15.50;;;;;;;-0.03;100.00;100504.28;5048428;28;20474;-36
2024/01/05 10:22:13;;;;;;;17.73;16.73;;;;;;;-0.16;100.00;100511.56;5052395;28;20435;-41
2024/01/05 10:24:42;;;;;;;17.00;16.20;;;;;;;-0.08;100.00;100516.13;5045662;28;20436;-37
2024/01/05 10:27:12;;;;;;;19.37;17.60;;;;;;;-0.10;100.00;100492.69;5048544;28;20432;-37
2024/01/05 10:29:43;;;;;;;17.80;16.93;;;;;;;-0.09;100.00;100515.28;5039947;28;20464;-38
2024/01/05 10:32:14;;;;;;;17.60;16.90;;;;;;;-0.04;100.00;100514.91;5042696;28;20514;-37
2024/01/05 10:34:44;;;;;;;17.67;16.77;;;;;;;0.00;100.00;100498.75;5042056;28;20483;-36
2024/01/05 10:37:12;;;;;;;17.27;16.47;;;;;;;0.06;100.00;100509.69;5051177;28;20435;-40
2024/01/05 10:39:46;;;;;;;17.40;16.50;;;;;;;0.01;100.00;100510.06;5051013;28;20468;-37
2024/01/05 10:42:26;;;;;;;18.30;17.30;;;;;;;0.01;100.00;100512.69;5047357;28;20427;-37
2024/01/05 10:44:56;;;;;;;18.90;18.00;;;;;;;-0.07;100.00;100495.03;5051966;28;20463;-36
2024/01/05 10:47:25;;;;;;;16.67;15.90;;;;;;;-0.06;100.00;100508.97;5038594;28;20795;-36
2024/01/05 10:49:55;;;;;;;15.33;14.73;;;;;;;-0.13;100.00;100486.88;5051127;28;20514;-37
2024/01/05 10:52:26;;;;;;;15.70;15.20;;;;;;;-0.13;100.00;100492.13;5053165;28;20473;-37
2024/01/05 10:54:54;;;;;;;16.93;16.13;;;;;;;-0.09;100.00;100499.56;5053255;28;20506;-37
2024/01/05 10:57:23;;;;;;;17.63;16.73;;;;;;;-0.06;100.00;100482.75;5051344;28;20519;-37
2024/01/05 10:59:54;;;;;;;17.00;16.40;;;;;;;0.01;100.00;100496.97;5051739;28;20465;-36
2024/01/05 11:02:31;;;;;;;17.20;16.27;;;;;;;0.05;100.00;100492.28;5051845;28;20511;-38
2024/01/05 11:05:09;;;;;;;16.43;15.83;;;;;;;0.10;100.00;100503.19;5043782;28;20506;-36
2024/01/05 11:07:38;;;;;;;15.67;15.00;;;;;;;0.11;100.00;100494.38;5051372;28;20870;-36